Latest Coastal Weather Observations for Weipa

IDQ60701

Issued at 9:31 am EST Monday 6 July 2015 (issued every 10 minutes, with the page automatically refreshed every 10 minutes)

About coastal observations | Map of coastal stations | Coastal observations for QLD | Marine services | Other Formats
Station Details ID: 027045 Name: WEIPA AERO Lat: -12.68 Lon: 141.92 Height: 17.96 m
Data from the previous 72 hours. | See also: Recent months at Weipa
Date/Time
EST
Temp

°C
Wind Pressure Rain
since 9am
mm
Weather Cloud Vis
km
Sea
Height
m
Swell
Dir
 
Speed
knots
Gust
knots
hPa Trend Height
m
Period
s
Dir
06/09:00am 23.7 E 11 18 1015.7 - 0.0 - - 10 - - - -
06/08:30am 22.0 ESE 8 11 1015.4 - 0.0 - - 10 - - - -
06/08:00am 19.4 ESE 5 7 1015.2 - 0.0 - - 10 - - - -
06/07:30am 17.3 SE 3 4 1015.0 - 0.0 - - 10 - - - -
06/07:00am 16.7 SE 2 3 1014.8 - 0.0 - - 10 - - - -
06/06:30am 16.8 ESE 3 3 1014.6 - 0.0 - - 10 - - - -
06/06:00am 17.0 ESE 2 2 1014.4 - 0.0 - - 10 - - - -
06/05:30am 17.3 ESE 2 2 1014.6 - 0.0 - - 10 - - - -
06/05:00am 17.2 SE 2 3 1014.3 - 0.0 - - 10 - - - -
06/04:30am 17.7 SE 3 4 1014.3 - 0.0 - - 10 - - - -
06/04:00am 17.8 ESE 3 3 1014.3 - 0.0 - - 10 - - - -
06/03:30am 18.2 ESE 3 4 1014.2 - 0.0 - - 10 - - - -
06/03:00am 18.3 ESE 3 3 1014.2 - 0.0 - - 10 - - - -
06/02:30am 18.9 ESE 2 3 1014.4 - 0.0 - - 10 - - - -
06/02:00am 19.3 ESE 3 4 1014.6 - 0.0 - - 10 - - - -
06/01:30am 19.4 ESE 3 4 1014.8 - 0.0 - - 10 - - - -
06/01:00am 19.4 E 3 4 1015.0 - 0.0 - - 10 - - - -
06/12:30am 20.9 E 5 6 1015.1 - 0.0 - - 10 - - - -
06/12:00am 21.1 ESE 5 7 1015.0 - 0.0 - - 10 - - - -
 
Date/Time
EST
Temp

°C
Wind Pressure Rain
since 9am
mm
Weather Cloud Vis
km
Sea
Height
m
Swell
Dir
 
Speed
knots
Gust
knots
hPa Trend Height
m
Period
s
Dir
05/11:30pm 21.4 SE 4 6 1015.0 - 0.0 - - 10 - - - -
05/11:00pm 22.5 E 5 7 1014.9 - 0.0 - - 10 - - - -
05/10:30pm 23.0 ESE 7 9 1014.9 - 0.0 - - 10 - - - -
05/10:00pm 23.3 ESE 6 8 1014.8 - 0.0 - - 10 - - - -
05/09:30pm 24.0 E 6 9 1014.5 - 0.0 - - 10 - - - -
05/09:00pm 24.4 ESE 7 10 1014.2 - 0.0 - - 10 - - - -
05/08:30pm 25.2 ESE 9 12 1014.2 - 0.0 - Partly cloudy 10 - - - -
05/08:00pm 24.7 ESE 5 6 1013.7 - 0.0 - Partly cloudy 10 - - - -
05/07:30pm 24.8 SE 3 5 1013.1 - 0.0 - Partly cloudy 10 - - - -
05/07:00pm 25.7 SE 3 5 1012.8 - 0.0 - - 10 - - - -
05/06:30pm 27.2 SE 4 6 1012.4 - 0.0 - - 10 - - - -
05/06:00pm 28.7 SE 4 8 1012.1 - 0.0 - - 10 - - - -
05/05:30pm 29.7 SSE 6 9 1011.8 - 0.0 - - 10 - - - -
05/05:00pm 30.3 SE 6 10 1011.7 - 0.0 - - 10 - - - -
05/04:30pm 30.8 ESE 8 11 1011.6 - 0.0 - Partly cloudy 10 - - - -
05/04:00pm 30.4 SE 8 13 1011.8 - 0.0 - Partly cloudy 10 - - - -
05/03:30pm 31.0 SE 7 12 1011.8 - 0.0 - Partly cloudy 10 - - - -
05/03:00pm 31.5 SSE 9 12 1011.9 - 0.0 - Mostly clear 10 - - - -
05/02:30pm 31.6 SE 8 13 1012.3 - 0.0 - - 10 - - - -
05/02:00pm 31.3 SSE 8 13 1012.7 - 0.0 - Partly cloudy 10 - - - -
05/01:30pm 31.5 ESE 7 15 1013.1 - 0.0 - Partly cloudy 10 - - - -
05/01:00pm 31.5 ESE 9 15 1013.4 - 0.0 - Partly cloudy 10 - - - -
05/12:30pm 30.0 ESE 9 13 1013.8 - 0.0 - - 10 - - - -
05/12:00pm 29.9 ESE 11 16 1014.2 - 0.0 - - 10 - - - -
05/11:30am 29.7 E 11 14 1014.7 - 0.0 - - 10 - - - -
05/11:00am 28.5 ESE 11 16 1015.0 - 0.0 - - 10 - - - -
05/10:30am 27.2 ESE 10 16 1015.2 - 0.0 - - 10 - - - -
05/10:00am 25.9 E 10 14 1015.4 - 0.0 - - 10 - - - -
05/09:30am 24.4 ESE 7 11 1015.6 - 0.0 - Cloudy 10 - - - -
05/09:00am 23.3 SE 4 7 1015.4 R 0.0 Haze Mostly cloudy 30 - - - -
05/08:30am 22.4 SSE 5 7 1015.3 - 0.0 - Cloudy 10 - - - -
05/08:00am 21.5 SSE 3 5 1015.1 - 0.0 - Cloudy 10 - - - -
05/07:30am 20.7 S 2 4 1015.1 - 0.0 - Cloudy 10 - - - -
05/07:00am 20.6 SE 2 2 1014.7 - 0.0 - Cloudy 10 - - - -
05/06:30am 20.6 CALM 0 0 1014.4 - 0.0 - Cloudy 10 - - - -
05/06:00am 20.6 ESE 2 2 1014.0 - 0.0 - Cloudy 10 - - - -
05/05:30am 20.6 ENE 1 2 1014.0 - 0.0 - Cloudy 10 - - - -
05/05:00am 20.3 NNE 1 2 1013.9 - 0.0 - Cloudy 10 - - - -
05/04:30am 20.7 ENE 1 2 1013.7 - 0.0 - Cloudy 10 - - - -
05/04:00am 20.5 CALM 0 2 1013.4 - 0.0 - Cloudy 10 - - - -
05/03:30am 20.3 SSE 1 2 1013.3 - 0.0 - Cloudy 10 - - - -
05/03:00am 20.1 CALM 0 1 1013.3 - 0.0 - Mostly cloudy 10 - - - -
05/02:30am 20.1 CALM 0 2 1013.7 - 0.0 - Cloudy 10 - - - -
05/02:00am 20.2 CALM 0 0 1013.9 - 0.0 - Partly cloudy 10 - - - -
05/01:30am 20.2 SSE 2 3 1014.1 - 0.0 - Partly cloudy 10 - - - -
05/01:00am 20.6 SSE 2 4 1014.2 - 0.0 - Cloudy 10 - - - -
05/12:30am 20.7 SE 2 3 1014.3 - 0.0 - Partly cloudy 10 - - - -
05/12:00am 21.0 E 3 4 1014.2 - 0.0 - Partly cloudy 10 - - - -
 
Date/Time
EST
Temp

°C
Wind Pressure Rain
since 9am
mm
Weather Cloud Vis
km
Sea
Height
m
Swell
Dir
 
Speed
knots
Gust
knots
hPa Trend Height
m
Period
s
Dir
04/11:30pm 21.0 ESE 5 7 1014.4 - 0.0 - - 10 - - - -
04/11:00pm 21.4 E 5 7 1014.6 - 0.0 - - 10 - - - -
04/10:30pm 21.8 E 5 7 1014.7 - 0.0 - Partly cloudy 10 - - - -
04/10:00pm 22.1 E 4 6 1014.8 - 0.0 - Partly cloudy 10 - - - -
04/09:30pm 22.5 E 6 9 1014.7 - 0.0 - - 10 - - - -
04/09:00pm 22.8 E 6 10 1014.2 - 0.0 - - 10 - - - -
04/08:30pm 23.0 E 5 8 1014.1 - 0.0 - - 10 - - - -
04/08:00pm 23.3 E 5 7 1013.8 - 0.0 - - 10 - - - -
04/07:30pm 23.5 ENE 3 4 1013.5 - 0.0 - Partly cloudy 10 - - - -
04/07:00pm 24.2 ENE 3 6 1013.3 - 0.0 - - 10 - - - -
04/06:30pm 24.9 ENE 4 6 1013.0 - 0.0 - - 10 - - - -
04/06:00pm 25.8 E 7 11 1012.3 - 0.0 - Partly cloudy 10 - - - -
04/05:30pm 26.7 E 7 11 1012.2 - 0.0 - Cloudy 10 - - - -
04/05:00pm 27.0 E 6 11 1011.8 - 0.0 - Cloudy 10 - - - -
04/04:30pm 27.2 E 8 12 1011.5 - 0.0 - Cloudy 10 - - - -
04/04:00pm 26.8 E 9 14 1011.5 - 0.0 - Partly cloudy 10 - - - -
04/03:30pm 27.2 ESE 9 11 1011.5 - 0.0 - Partly cloudy 10 - - - -
04/03:00pm 27.0 E 9 14 1011.4 - 0.0 - Cloudy 10 - - - -
04/02:30pm 27.8 E 9 13 1011.7 - 0.0 - Partly cloudy 10 - - - -
04/02:00pm 27.5 ESE 10 14 1012.1 - 0.0 - Partly cloudy 10 - - - -
04/01:30pm 29.0 ESE 9 14 1012.3 - 0.0 - Partly cloudy 10 - - - -
04/01:00pm 27.6 ESE 10 13 1012.8 - 0.0 - Partly cloudy 10 - - - -
04/12:30pm 28.4 E 8 14 1013.3 - 0.0 - Partly cloudy 10 - - - -
04/12:00pm 27.7 ESE 7 11 1013.7 - 0.0 - Mostly clear 10 - - - -
04/11:30am 26.3 ESE 7 11 1014.4 - 0.0 - Partly cloudy 10 - - - -
04/11:00am 25.5 SE 10 16 1014.9 - 0.0 - Partly cloudy 10 - - - -
04/10:30am 25.1 ESE 9 12 1015.1 - 0.0 - Partly cloudy 10 - - - -
04/10:00am 23.3 ESE 7 10 1015.5 - 0.0 - Partly cloudy 10 - - - -
04/09:30am 22.4 ESE 7 10 1015.7 - 0.0 - Cloudy 10 - - - -
04/09:00am 20.9 ESE 5 7 1015.6 R 0.0 Haze Mostly cloudy 10 - - - -
04/08:30am 20.1 ESE 5 7 1015.5 - 0.0 - Cloudy 10 - - - -
04/08:00am 19.6 SE 3 5 1015.2 - 0.0 - Partly cloudy 10 - - - -
04/07:30am 19.0 SSE 2 3 1014.8 - 0.0 - Partly cloudy 10 - - - -
04/07:00am 18.5 S 1 3 1014.6 - 0.0 - Cloudy 10 - - - -
04/06:30am 18.5 S 3 4 1014.2 - 0.0 - Partly cloudy 10 - - - -
04/06:21am 18.4 SSE 3 5 1014.2 - 0.0 - Partly cloudy 10 - - - -
04/06:02am 18.4 SSE 3 5 1014.0 - 0.0 - - 4 - - - -
04/06:00am 18.5 SSE 4 5 1013.9 - 0.0 - Mostly clear 10 - - - -
04/05:30am 18.7 E 3 5 1014.0 - 0.0 - Partly cloudy 10 - - - -
04/05:00am 18.3 SE 4 5 1013.8 - 0.0 - Cloudy 10 - - - -
04/04:30am 17.9 SE 2 2 1013.8 - 0.0 - Partly cloudy 10 - - - -
04/04:00am 17.9 E 3 4 1013.8 - 0.0 - - 8 - - - -
04/03:30am 18.4 E 4 5 1014.0 - 0.0 - Partly cloudy 10 - - - -
04/03:00am 18.2 ESE 3 4 1014.0 - 0.0 - - 10 - - - -
04/02:30am 18.3 ESE 3 4 1014.3 - 0.0 - - 10 - - - -
04/02:00am 18.5 ESE 4 5 1014.5 - 0.0 - - 10 - - - -
04/01:30am 19.0 E 3 4 1014.7 - 0.0 - - 10 - - - -
04/01:00am 19.6 E 5 8 1014.8 - 0.0 - - 10 - - - -
04/12:30am 20.3 E 4 6 1014.8 - 0.0 - - 10 - - - -
04/12:00am 20.6 ESE 5 7 1014.9 - 0.0 - - 10 - - - -
 
Date/Time
EST
Temp

°C
Wind Pressure Rain
since 9am
mm
Weather Cloud Vis
km
Sea
Height
m
Swell
Dir
 
Speed
knots
Gust
knots
hPa Trend Height
m
Period
s
Dir
03/11:30pm 21.0 E 5 9 1015.2 - 0.0 - Partly cloudy 10 - - - -
03/11:00pm 21.3 E 5 7 1015.4 - 0.0 - - 10 - - - -
03/10:30pm 21.8 ESE 5 7 1015.4 - 0.0 - - 10 - - - -
03/10:00pm 22.3 ESE 5 8 1015.3 - 0.0 - Partly cloudy 10 - - - -
03/09:30pm 22.9 E 7 12 1015.0 - 0.0 - - 10 - - - -
03/09:00pm 23.4 E 5 6 1014.5 - 0.0 - - 10 - - - -
03/08:30pm 24.0 E 5 8 1014.2 - 0.0 - - 10 - - - -
03/08:00pm 24.4 E 6 9 1013.9 - 0.0 - - 10 - - - -
03/07:30pm 24.8 E 3 5 1013.6 - 0.0 - - 10 - - - -
03/07:00pm 25.3 ESE 3 4 1013.2 - 0.0 - Partly cloudy 10 - - - -
03/06:30pm 26.2 ESE 3 6 1012.8 - 0.0 - Partly cloudy 10 - - - -
03/06:00pm 27.6 SE 6 8 1012.4 - 0.0 - - 10 - - - -
03/05:30pm 28.7 SE 8 10 1012.2 - 0.0 - - 10 - - - -
03/05:00pm 28.9 SSE 6 9 1011.8 - 0.0 - - 10 - - - -
03/04:30pm 29.5 SSE 6 10 1011.4 - 0.0 - Partly cloudy 10 - - - -
03/04:00pm 29.6 SE 9 12 1011.4 - 0.0 - - 10 - - - -
03/03:30pm 28.4 SE 8 12 1011.6 - 0.0 - Partly cloudy 10 - - - -
03/03:00pm 29.6 SE 8 13 1011.7 - 0.0 - - 10 - - - -
03/02:30pm 28.6 SSE 9 14 1012.2 - 0.0 - Partly cloudy 10 - - - -
03/02:00pm 29.8 E 7 14 1012.6 - 0.0 - - 10 - - - -
03/01:30pm 27.9 SE 9 14 1013.0 - 0.0 - Partly cloudy 10 - - - -
03/01:00pm 28.5 SE 11 18 1013.5 - 0.0 - - 10 - - - -
03/12:30pm 29.0 SE 9 14 1014.0 - 0.0 - Partly cloudy 10 - - - -
03/12:00pm 29.2 SE 11 16 1014.6 - 0.0 - - 10 - - - -
03/11:30am 27.8 E 9 14 1015.3 - 0.0 - - 10 - - - -
03/11:00am 26.9 E 10 16 1015.7 - 0.0 - Partly cloudy 10 - - - -
03/10:30am 25.5 E 8 13 1016.0 - 0.0 - Partly cloudy 10 - - - -
03/10:00am 24.4 ESE 9 13 1016.3 - 0.0 - Partly cloudy 10 - - - -

Other Formats:

Comma delimited format used in spreadsheet applications
http://www.bom.gov.au/fwo/IDQ60701/IDQ60701.94170.axf

JavaScript Object Notation format (JSON) in row-major order
http://www.bom.gov.au/fwo/IDQ60701/IDQ60701.94170.json